^^
Station Historical Data
Daily Summary for September 21, 2017 Units:  Metric    English   Both
« Previous Day
Next Day »
Daily Weekly Monthly Yearly Custom
  High: Low: Average:
Temperature: 37.2 °C 19 °C 25.6 °C
Dew Point: 6.8 °C -4.9 °C 1.9 °C
Humidity: 45% 10% 24%
Wind Speed: 33.8km/h 0km/h 10.5km/h
Wind Gust: 35.4km/h - -
Wind- - WSW
Pressure: 1010.7 hPa 1005.3 hPa -
Precipitation: 0 mm    
Historical Graphs
 
 
Tabular Data for September 21, 2017
Time Temperature Dew Point Pressure Wind Wind Speed Wind Gust Humidity Rainfall Rate (Hourly) solar Conditions
04:22 22.8 °C -4.3 °C 1008 hPa NW 6.4 km/h 12.9 km/h 16% 0 mm 0.0 W/m2
04:27 22.9 °C -4.3 °C 1008 hPa NW 3.2 km/h 12.9 km/h 16% 0 mm 0.0 W/m2
04:37 23.5 °C -3.8 °C 1008.4 hPa NW 11.1 km/h 14.5 km/h 16% 0 mm 0.0 W/m2
04:43 23.7 °C -3.6 °C 1008.4 hPa NW 9.7 km/h 11.3 km/h 16% 0 mm 0.0 W/m2
04:53 24.3 °C -4.9 °C 1008 hPa Calm   6.4 km/h 14% 0 mm 0.0 W/m2
05:03 24.5 °C -4.8 °C 1008.4 hPa Calm     14% 0 mm 0.0 W/m2
05:08 24.3 °C -4.9 °C 1008.4 hPa Calm     14% 0 mm 0.0 W/m2
05:18 23.3 °C -4.8 °C 1008.4 hPa Calm   9.7 km/h 15% 0 mm 0.0 W/m2
05:33 22.6 °C -4.5 °C 1008.4 hPa NW 6.4 km/h 8 km/h 16% 0 mm 0.0 W/m2
05:38 22.2 °C -4 °C 1008.4 hPa Calm     17% 0 mm 0.0 W/m2
05:43 21.7 °C -4.4 °C 1008.4 hPa NW 7.9 km/h 8 km/h 17% 0 mm 0.0 W/m2
05:53 21.6 °C -3.7 °C 1008.4 hPa Calm   8 km/h 18% 0 mm 0.0 W/m2
05:58 21.4 °C -3.9 °C 1008.4 hPa Calm   6.4 km/h 18% 0 mm 0.0 W/m2
06:03 21.6 °C -3 °C 1008.4 hPa NW 3.2 km/h 12.9 km/h 19% 0 mm 0.0 W/m2
06:08 22.2 °C -2.5 °C 1008.4 hPa NW 7.9 km/h 9.7 km/h 19% 0 mm 0.0 W/m2
06:18 23 °C -1.9 °C 1008.4 hPa NW 7.9 km/h 12.9 km/h 19% 0 mm 0.0 W/m2
06:23 23.2 °C -1.7 °C 1008.4 hPa NW 7.9 km/h 11.3 km/h 19% 0 mm 0.0 W/m2
06:29 23.2 °C -1.7 °C 1008.4 hPa NW 6.4 km/h 12.9 km/h 19% 0 mm 0.0 W/m2
06:35 23.3 °C -1.6 °C 1008.4 hPa NW 1.4 km/h 12.9 km/h 19% 0 mm 0.0 W/m2
06:43 23.6 °C -1.4 °C 1008.4 hPa NW 9.7 km/h 12.9 km/h 19% 0 mm 0.0 W/m2
06:53 23.9 °C -1.1 °C 1008.7 hPa NW 6.4 km/h 17.7 km/h 19% 0 mm 7.0 W/m2
07:03 24.2 °C -0.9 °C 1008.7 hPa NNW 11.1 km/h 17.7 km/h 19% 0 mm 16.0 W/m2
07:11 24 °C -1.1 °C 1008.7 hPa NNW 6.4 km/h 17.7 km/h 19% 0 mm 32.0 W/m2
07:50 25 °C -0.2 °C 1009 hPa NNW 11.1 km/h 14.5 km/h 19% 0 mm 70.0 W/m2
08:05 25.3 °C 0 °C 1009 hPa Calm   11.3 km/h 19% 0 mm 88.0 W/m2
08:14 25.5 °C 0.2 °C 1009 hPa NNW 3.2 km/h 17.7 km/h 19% 0 mm 127.0 W/m2
08:29 26.6 °C 1.1 °C 1009 hPa NNW 9.7 km/h 12.9 km/h 19% 0 mm 264.0 W/m2
08:52 28.6 °C 2 °C 1009 hPa NNW 14.3 km/h 20.9 km/h 18% 0 mm 313.0 W/m2
09:05 30.3 °C 1.7 °C 1009 hPa NNW 19.5 km/h 20.9 km/h 16% 0 mm 255.0 W/m2
09:25 30.8 °C 2.1 °C 1008.7 hPa North 13 km/h 24.1 km/h 16% 0 mm 438.0 W/m2
09:45 31.3 °C 1.6 °C 1008.7 hPa NNE 20.9 km/h 27.4 km/h 15% 0 mm 207.0 W/m2
10:07 31.8 °C 2 °C 1008.7 hPa North 11.1 km/h 22.5 km/h 15% 0 mm 522.0 W/m2
10:48 32.8 °C 2.8 °C 1008.4 hPa NNE 28.8 km/h 30.6 km/h 15% 0 mm 603.0 W/m2
10:56 32.9 °C 1.9 °C 1008 hPa North 17.7 km/h 32.2 km/h 14% 0 mm 633.0 W/m2
11:02 33.3 °C 2.2 °C 1008 hPa North 13 km/h 22.5 km/h 14% 0 mm 638.0 W/m2
11:10 33.3 °C 2.2 °C 1008 hPa North 19.5 km/h 32.2 km/h 14% 0 mm 645.0 W/m2
11:21 33.8 °C 2.6 °C 1008 hPa North 19.5 km/h 29 km/h 14% 0 mm 657.0 W/m2
11:36 34.4 °C 2 °C 1007.7 hPa NNW 13 km/h 29 km/h 13% 0 mm 682.0 W/m2
11:50 34.8 °C 1.2 °C 1007.3 hPa NNW 1.4 km/h 32.2 km/h 12% 0 mm 696.0 W/m2
12:33 35.2 °C 0.3 °C 1007 hPa NW 19.5 km/h 25.7 km/h 11% 0 mm 731.0 W/m2
12:49 35.5 °C 0.5 °C 1006.7 hPa NNW 17.7 km/h 30.6 km/h 11% 0 mm 722.0 W/m2
13:23 36.1 °C 1 °C 1006.3 hPa NNW 14.3 km/h 24.1 km/h 11% 0 mm 708.0 W/m2
14:16 37.2 °C 0.5 °C 1005.3 hPa NW 7.9 km/h 9.7 km/h 10% 0 mm 629.0 W/m2
14:22 37.2 °C 0.5 °C 1005.3 hPa NW 7.9 km/h 9.7 km/h 10% 0 mm 629.0 W/m2
14:35 37.2 °C 1.8 °C 1005.3 hPa WSW 19.5 km/h 27.4 km/h 11% 0 mm 631.0 W/m2
14:44 34.7 °C 3.3 °C 1005.6 hPa SSW 24.1 km/h 33.8 km/h 14% 0 mm 596.0 W/m2
14:55 32.7 °C 3.6 °C 1005.6 hPa SSW 20.9 km/h 32.2 km/h 16% 0 mm 584.0 W/m2
15:06 31.8 °C 3.7 °C 1005.6 hPa South 24.1 km/h 27.4 km/h 17% 0 mm 552.0 W/m2
15:16 31.1 °C 3.2 °C 1005.6 hPa South 22.7 km/h 24.1 km/h 17% 0 mm 276.0 W/m2
15:22 30.7 °C 3.7 °C 1005.6 hPa SSW 24.1 km/h 29 km/h 18% 0 mm 243.0 W/m2
15:37 29.8 °C 3.7 °C 1005.6 hPa SSW 17.7 km/h 25.7 km/h 19% 0 mm 246.0 W/m2
16:07 30.5 °C 2.7 °C 1005.3 hPa SSW 17.7 km/h 24.1 km/h 17% 0 mm 403.0 W/m2
16:17 30.9 °C 3 °C 1005.3 hPa SSW 19.5 km/h 22.5 km/h 17% 0 mm 362.0 W/m2
16:25 30.9 °C 3 °C 1005.3 hPa SSW 19.5 km/h 20.9 km/h 17% 0 mm 304.0 W/m2
16:33 31.2 °C 2.4 °C 1005.3 hPa SSW 14.3 km/h 17.7 km/h 16% 0 mm 241.0 W/m2
19:19 23.8 °C 5.2 °C 1008.4 hPa SSW 33.8 km/h 35.4 km/h 30% 0 mm 0.0 W/m2
20:06 22.7 °C 6.4 °C 1009 hPa SSW 28.8 km/h 29 km/h 35% 0 mm 0.0 W/m2
20:22 22.3 °C 5.2 °C 1009 hPa SSW 20.9 km/h 32.2 km/h 33% 0 mm 0.0 W/m2
20:52 21.7 °C 4.7 °C 1009.7 hPa SSW 17.7 km/h 27.4 km/h 33% 0 mm 0.0 W/m2
21:03 21.4 °C 5.3 °C 1010 hPa SSW 14.3 km/h 19.3 km/h 35% 0 mm 0.0 W/m2
21:14 20.8 °C 5.6 °C 1010 hPa SSW 16.3 km/h 19.3 km/h 37% 0 mm 0.0 W/m2
21:24 20.6 °C 5.8 °C 1010 hPa SSW 14.3 km/h 17.7 km/h 38% 0 mm 0.0 W/m2
21:32 20.6 °C 5.8 °C 1010.4 hPa SSW 13 km/h 16.1 km/h 38% 0 mm 0.0 W/m2
21:40 20.6 °C 5.8 °C 1010.7 hPa SSW 9.7 km/h 14.5 km/h 38% 0 mm 0.0 W/m2
21:50 20.5 °C 6.1 °C 1010.7 hPa SSW 11.1 km/h 12.9 km/h 39% 0 mm 0.0 W/m2
21:55 20.4 °C 6 °C 1010.7 hPa SSW 7.9 km/h 11.3 km/h 39% 0 mm 0.0 W/m2
22:10 20.1 °C 6.1 °C 1010.7 hPa SSW 6.4 km/h 8 km/h 40% 0 mm 0.0 W/m2
22:15 20.1 °C 6.1 °C 1010.7 hPa Calm     40% 0 mm 0.0 W/m2
22:21 20 °C 6 °C 1010.7 hPa Calm     40% 0 mm 0.0 W/m2
22:26 19.9 °C 5.9 °C 1010.7 hPa Calm     40% 0 mm 0.0 W/m2
22:31 19.9 °C 6.3 °C 1010.7 hPa Calm     41% 0 mm 0.0 W/m2
22:37 19.8 °C 6.2 °C 1010.7 hPa Calm     41% 0 mm 0.0 W/m2
22:42 19.8 °C 6.2 °C 1010.4 hPa Calm     41% 0 mm 0.0 W/m2
22:53 19.6 °C 6 °C 1010.7 hPa Calm     41% 0 mm 0.0 W/m2
23:03 19.6 °C 6 °C 1010.7 hPa Calm     41% 0 mm 0.0 W/m2
23:08 19.6 °C 6 °C 1010.4 hPa Calm     41% 0 mm 0.0 W/m2
23:18 19.4 °C 6.2 °C 1010.4 hPa Calm     42% 0 mm 0.0 W/m2
23:24 19.3 °C 6.4 °C 1010.4 hPa Calm     43% 0 mm 0.0 W/m2
23:30 19.1 °C 6.6 °C 1010.4 hPa Calm     44% 0 mm 0.0 W/m2
23:39 19 °C 6.5 °C 1010.4 hPa SSW 11.1 km/h 12.9 km/h 44% 0 mm 0.0 W/m2
23:44 19.1 °C 6.6 °C 1010.4 hPa SSW 9.7 km/h 14.5 km/h 44% 0 mm 0.0 W/m2
23:49 19.1 °C 6.6 °C 1010.4 hPa SSW 11.1 km/h 12.9 km/h 44% 0 mm 0.0 W/m2
23:59 19 °C 6.8 °C 1010.7 hPa SSW 16.3 km/h 17.7 km/h 45% 0 mm 0.0 W/m2
Canyon Roadhouse, Fishriver Canyon, Namibia
Compliments of Weather Underground - 2 mb